sensor_id;sensor_type;location;lat;lon;timestamp;pressure;altitude;pressure_sealevel;temperature;humidity
51876;BME280;34054;52.100;5.116;2022-08-07T00:00:06;102574.94;;;18.50;55.67
51876;BME280;34054;52.100;5.116;2022-08-07T00:00:39;102567.78;;;18.49;55.81
51876;BME280;34054;52.100;5.116;2022-08-07T00:01:11;102567.22;;;18.47;55.88
51876;BME280;34054;52.100;5.116;2022-08-07T00:01:44;102567.50;;;18.45;55.73
51876;BME280;34054;52.100;5.116;2022-08-07T00:02:16;102567.50;;;18.50;55.50
51876;BME280;34054;52.100;5.116;2022-08-07T00:02:47;102567.50;;;18.56;55.30
51876;BME280;34054;52.100;5.116;2022-08-07T00:03:20;102523.66;;;18.28;55.62
51876;BME280;34054;52.100;5.116;2022-08-07T00:03:54;102563.09;;;18.49;55.50
51876;BME280;34054;52.100;5.116;2022-08-07T00:04:25;102568.88;;;18.48;55.62
51876;BME280;34054;52.100;5.116;2022-08-07T00:04:58;102565.03;;;18.49;55.51
51876;BME280;34054;52.100;5.116;2022-08-07T00:05:29;102567.78;;;18.49;55.76
51876;BME280;34054;52.100;5.116;2022-08-07T00:06:01;102569.69;;;18.48;55.67
51876;BME280;34054;52.100;5.116;2022-08-07T00:06:34;102563.38;;;18.48;55.70
51876;BME280;34054;52.100;5.116;2022-08-07T00:07:06;102570.25;;;18.45;55.87
51876;BME280;34054;52.100;5.116;2022-08-07T00:07:37;102566.63;;;18.45;55.88
51876;BME280;34054;52.100;5.116;2022-08-07T00:08:10;102547.88;;;18.31;55.77
51876;BME280;34054;52.100;5.116;2022-08-07T00:08:43;102572.13;;;18.40;56.07
51876;BME280;34054;52.100;5.116;2022-08-07T00:09:14;102564.97;;;18.39;56.06
51876;BME280;34054;52.100;5.116;2022-08-07T00:09:47;102552.84;;;18.34;55.80
51876;BME280;34054;52.100;5.116;2022-08-07T00:10:19;102565.81;;;18.44;55.80
51876;BME280;34054;52.100;5.116;2022-08-07T00:10:53;102558.94;;;18.42;55.79
51876;BME280;34054;52.100;5.116;2022-08-07T00:11:26;102554.50;;;18.35;55.90
51876;BME280;34054;52.100;5.116;2022-08-07T00:11:58;102568.28;;;18.41;55.98
51876;BME280;34054;52.100;5.116;2022-08-07T00:12:29;102564.97;;;18.44;55.88
51876;BME280;34054;52.100;5.116;2022-08-07T00:13:04;102550.41;;;18.43;55.57
51876;BME280;34054;52.100;5.116;2022-08-07T00:13:36;102558.16;;;18.46;55.51
51876;BME280;34054;52.100;5.116;2022-08-07T00:14:08;102558.94;;;18.42;55.87
51876;BME280;34054;52.100;5.116;2022-08-07T00:14:40;102568.28;;;18.41;55.84
51876;BME280;34054;52.100;5.116;2022-08-07T00:15:12;102560.84;;;18.41;55.68
51876;BME280;34054;52.100;5.116;2022-08-07T00:15:44;102561.13;;;18.40;55.85
51876;BME280;34054;52.100;5.116;2022-08-07T00:16:17;102549.00;;;18.35;55.87
51876;BME280;34054;52.100;5.116;2022-08-07T00:16:48;102544.34;;;18.36;55.69
51876;BME280;34054;52.100;5.116;2022-08-07T00:17:20;102563.31;;;18.38;56.05
51876;BME280;34054;52.100;5.116;2022-08-07T00:17:52;102553.13;;;18.33;55.92
51876;BME280;34054;52.100;5.116;2022-08-07T00:18:26;102555.34;;;18.36;56.11
51876;BME280;34054;52.100;5.116;2022-08-07T00:18:58;102561.41;;;18.38;55.75
51876;BME280;34054;52.100;5.116;2022-08-07T00:19:31;102554.78;;;18.39;55.92
51876;BME280;34054;52.100;5.116;2022-08-07T00:20:05;102556.44;;;18.40;55.84
51876;BME280;34054;52.100;5.116;2022-08-07T00:20:38;102534.66;;;18.23;55.85
51876;BME280;34054;52.100;5.116;2022-08-07T00:21:10;102552.31;;;18.38;55.96
51876;BME280;34054;52.100;5.116;2022-08-07T00:21:42;102558.38;;;18.40;55.85
51876;BME280;34054;52.100;5.116;2022-08-07T00:22:14;102553.97;;;18.39;55.72
51876;BME280;34054;52.100;5.116;2022-08-07T00:22:47;102558.09;;;18.41;55.68
51876;BME280;34054;52.100;5.116;2022-08-07T00:23:18;102555.63;;;18.40;55.57
51876;BME280;34054;52.100;5.116;2022-08-07T00:23:51;102559.47;;;18.39;55.88
51876;BME280;34054;52.100;5.116;2022-08-07T00:24:24;102549.84;;;18.36;55.85
51876;BME280;34054;52.100;5.116;2022-08-07T00:24:55;102555.59;;;18.34;55.88
51876;BME280;34054;52.100;5.116;2022-08-07T00:25:30;102551.50;;;18.37;55.71
51876;BME280;34054;52.100;5.116;2022-08-07T00:26:04;102536.31;;;18.24;55.96
51876;BME280;34054;52.100;5.116;2022-08-07T00:26:37;102549.84;;;18.36;55.96
51876;BME280;34054;52.100;5.116;2022-08-07T00:27:09;102547.91;;;18.36;55.94
51876;BME280;34054;52.100;5.116;2022-08-07T00:27:42;102554.25;;;18.37;55.89
51876;BME280;34054;52.100;5.116;2022-08-07T00:28:13;102551.22;;;18.33;56.30
51876;BME280;34054;52.100;5.116;2022-08-07T00:28:45;102546.22;;;18.30;56.12
51876;BME280;34054;52.100;5.116;2022-08-07T00:29:18;102556.16;;;18.31;56.05
51876;BME280;34054;52.100;5.116;2022-08-07T00:29:52;102523.38;;;18.19;55.88
51876;BME280;34054;52.100;5.116;2022-08-07T00:30:24;102542.97;;;18.39;55.81
51876;BME280;34054;52.100;5.116;2022-08-07T00:30:56;102532.19;;;18.32;55.66
51876;BME280;34054;52.100;5.116;2022-08-07T00:31:28;102551.78;;;18.41;55.45
51876;BME280;34054;52.100;5.116;2022-08-07T00:32:00;102547.91;;;18.36;55.58
51876;BME280;34054;52.100;5.116;2022-08-07T00:32:33;102524.41;;;18.13;55.87
51876;BME280;34054;52.100;5.116;2022-08-07T00:33:06;102535.69;;;18.17;56.24
51876;BME280;34054;52.100;5.116;2022-08-07T00:33:39;102543.41;;;18.15;56.17
51876;BME280;34054;52.100;5.116;2022-08-07T00:34:12;102539.88;;;18.19;56.22
51876;BME280;34054;52.100;5.116;2022-08-07T00:34:43;102546.75;;;18.27;56.07
51876;BME280;34054;52.100;5.116;2022-08-07T00:35:19;102555.28;;;18.26;56.32
51876;BME280;34054;52.100;5.116;2022-08-07T00:35:53;102549.50;;;18.22;56.42
51876;BME280;34054;52.100;5.116;2022-08-07T00:36:26;102550.88;;;18.19;56.38
51876;BME280;34054;52.100;5.116;2022-08-07T00:36:57;102545.59;;;18.18;56.39
51876;BME280;34054;52.100;5.116;2022-08-07T00:37:30;102552.53;;;18.20;56.28
51876;BME280;34054;52.100;5.116;2022-08-07T00:38:01;102548.34;;;18.18;56.61
51876;BME280;34054;52.100;5.116;2022-08-07T00:38:33;102548.91;;;18.15;56.69
51876;BME280;34054;52.100;5.116;2022-08-07T00:39:08;102545.06;;;18.16;56.53
51876;BME280;34054;52.100;5.116;2022-08-07T00:39:40;102544.50;;;18.14;56.75
51876;BME280;34054;52.100;5.116;2022-08-07T00:40:13;102546.97;;;18.15;56.68
51876;BME280;34054;52.100;5.116;2022-08-07T00:40:45;102542.28;;;18.11;56.96
51876;BME280;34054;52.100;5.116;2022-08-07T00:41:24;102545.56;;;18.08;56.83
51876;BME280;34054;52.100;5.116;2022-08-07T00:41:58;102533.75;;;18.07;57.10
51876;BME280;34054;52.100;5.116;2022-08-07T00:42:31;102544.47;;;18.09;56.96
51876;BME280;34054;52.100;5.116;2022-08-07T00:43:03;102542.03;;;18.12;56.97
51876;BME280;34054;52.100;5.116;2022-08-07T00:43:35;102538.44;;;18.12;57.04
51876;BME280;34054;52.100;5.116;2022-08-07T00:44:07;102539.53;;;18.11;57.02
51876;BME280;34054;52.100;5.116;2022-08-07T00:44:39;102537.88;;;18.10;57.06
51876;BME280;34054;52.100;5.116;2022-08-07T00:45:11;102540.63;;;18.10;57.01
51876;BME280;34054;52.100;5.116;2022-08-07T00:45:43;102545.00;;;18.05;57.04
51876;BME280;34054;52.100;5.116;2022-08-07T00:46:16;102535.41;;;18.08;57.15
51876;BME280;34054;52.100;5.116;2022-08-07T00:46:47;102532.66;;;18.08;57.22
51876;BME280;34054;52.100;5.116;2022-08-07T00:47:19;102537.03;;;18.04;57.22
51876;BME280;34054;52.100;5.116;2022-08-07T00:47:50;102530.97;;;18.02;57.12
51876;BME280;34054;52.100;5.116;2022-08-07T00:48:23;102535.91;;;18.05;57.21
51876;BME280;34054;52.100;5.116;2022-08-07T00:48:54;102510.78;;;17.86;57.41
51876;BME280;34054;52.100;5.116;2022-08-07T00:49:26;102535.66;;;18.07;57.19
51876;BME280;34054;52.100;5.116;2022-08-07T00:49:59;102533.44;;;18.03;57.25
51876;BME280;34054;52.100;5.116;2022-08-07T00:50:31;102520.78;;;17.97;57.43
51876;BME280;34054;52.100;5.116;2022-08-07T00:51:03;102537.84;;;18.04;57.38
51876;BME280;34054;52.100;5.116;2022-08-07T00:51:34;102503.66;;;17.90;56.97
51876;BME280;34054;52.100;5.116;2022-08-07T00:52:08;102510.50;;;17.87;57.43
51876;BME280;34054;52.100;5.116;2022-08-07T00:52:40;102525.44;;;17.97;57.67
51876;BME280;34054;52.100;5.116;2022-08-07T00:53:11;102531.50;;;17.99;57.61
51876;BME280;34054;52.100;5.116;2022-08-07T00:53:44;102535.09;;;17.99;57.70
51876;BME280;34054;52.100;5.116;2022-08-07T00:54:17;102529.59;;;17.99;57.51
51876;BME280;34054;52.100;5.116;2022-08-07T00:54:48;102510.78;;;17.86;57.52
51876;BME280;34054;52.100;5.116;2022-08-07T00:55:22;102492.03;;;17.78;57.28
51876;BME280;34054;52.100;5.116;2022-08-07T00:55:54;102506.66;;;17.88;57.33
51876;BME280;34054;52.100;5.116;2022-08-07T00:56:26;102525.22;;;18.09;57.13
51876;BME280;34054;52.100;5.116;2022-08-07T00:57:00;102523.31;;;18.09;56.99
51876;BME280;34054;52.100;5.116;2022-08-07T00:57:31;102520.22;;;18.00;56.90
51876;BME280;34054;52.100;5.116;2022-08-07T00:58:03;102528.50;;;18.05;57.23
51876;BME280;34054;52.100;5.116;2022-08-07T00:58:40;102526.34;;;18.08;56.94
51876;BME280;34054;52.100;5.116;2022-08-07T00:59:13;102518.59;;;18.04;56.88
51876;BME280;34054;52.100;5.116;2022-08-07T00:59:45;102513.13;;;18.04;56.62
51876;BME280;34054;52.100;5.116;2022-08-07T01:00:18;102513.69;;;18.12;56.59
51876;BME280;34054;52.100;5.116;2022-08-07T01:00:50;102519.19;;;18.12;56.70
51876;BME280;34054;52.100;5.116;2022-08-07T01:01:22;102508.41;;;18.00;56.94
51876;BME280;34054;52.100;5.116;2022-08-07T01:01:54;102525.50;;;18.07;56.88
51876;BME280;34054;52.100;5.116;2022-08-07T01:02:26;102468.31;;;17.61;57.22
51876;BME280;34054;52.100;5.116;2022-08-07T01:02:58;102527.09;;;17.98;57.26
51876;BME280;34054;52.100;5.116;2022-08-07T01:03:30;102522.34;;;17.93;57.55
51876;BME280;34054;52.100;5.116;2022-08-07T01:04:04;102524.00;;;17.94;57.50
51876;BME280;34054;52.100;5.116;2022-08-07T01:04:36;102522.91;;;17.95;57.62
51876;BME280;34054;52.100;5.116;2022-08-07T01:05:11;102524.84;;;17.95;57.52
51876;BME280;34054;52.100;5.116;2022-08-07T01:05:44;102519.88;;;17.92;57.80
51876;BME280;34054;52.100;5.116;2022-08-07T01:06:17;102505.28;;;17.86;57.60
51876;BME280;34054;52.100;5.116;2022-08-07T01:06:51;102525.94;;;17.94;57.81
51876;BME280;34054;52.100;5.116;2022-08-07T01:07:23;102526.19;;;17.92;57.69
51876;BME280;34054;52.100;5.116;2022-08-07T01:07:55;102528.13;;;17.92;57.88
51876;BME280;34054;52.100;5.116;2022-08-07T01:08:27;102505.50;;;17.79;57.78
51876;BME280;34054;52.100;5.116;2022-08-07T01:09:00;102521.81;;;17.91;57.84
51876;BME280;34054;52.100;5.116;2022-08-07T01:09:34;102506.38;;;17.85;57.76
51876;BME280;34054;52.100;5.116;2022-08-07T01:10:09;102518.50;;;17.94;57.71
51876;BME280;34054;52.100;5.116;2022-08-07T01:10:40;102525.91;;;17.88;58.12
51876;BME280;34054;52.100;5.116;2022-08-07T01:11:13;102521.75;;;17.86;57.96
51876;BME280;34054;52.100;5.116;2022-08-07T01:11:47;102526.69;;;17.84;58.11
51876;BME280;34054;52.100;5.116;2022-08-07T01:12:20;102526.69;;;17.84;58.19
51876;BME280;34054;52.100;5.116;2022-08-07T01:12:52;102472.34;;;17.48;58.26
51876;BME280;34054;52.100;5.116;2022-08-07T01:13:25;102510.41;;;17.72;58.33
51876;BME280;34054;52.100;5.116;2022-08-07T01:13:57;102526.66;;;17.79;58.56
51876;BME280;34054;52.100;5.116;2022-08-07T01:14:29;102523.09;;;17.78;58.58
51876;BME280;34054;52.100;5.116;2022-08-07T01:15:03;102526.94;;;17.77;58.39
51876;BME280;34054;52.100;5.116;2022-08-07T01:15:36;102510.09;;;17.68;58.55
51876;BME280;34054;52.100;5.116;2022-08-07T01:16:08;102529.94;;;17.76;58.56
51876;BME280;34054;52.100;5.116;2022-08-07T01:16:41;102526.06;;;17.71;58.68
51876;BME280;34054;52.100;5.116;2022-08-07T01:17:14;102524.69;;;17.69;58.99
51876;BME280;34054;52.100;5.116;2022-08-07T01:17:45;102526.88;;;17.67;59.06
51876;BME280;34054;52.100;5.116;2022-08-07T01:18:18;102513.56;;;17.53;59.07
51876;BME280;34054;52.100;5.116;2022-08-07T01:18:50;102521.09;;;17.68;58.98
51876;BME280;34054;52.100;5.116;2022-08-07T01:19:23;102527.75;;;17.72;58.91
51876;BME280;34054;52.100;5.116;2022-08-07T01:20:02;102523.63;;;17.75;58.60
51876;BME280;34054;52.100;5.116;2022-08-07T01:20:53;102525.47;;;17.64;58.97
51876;BME280;34054;52.100;5.116;2022-08-07T01:21:35;102525.72;;;17.63;59.13
51876;BME280;34054;52.100;5.116;2022-08-07T01:22:08;102528.47;;;17.63;59.18
51876;BME280;34054;52.100;5.116;2022-08-07T01:22:41;102530.13;;;17.64;58.96
51876;BME280;34054;52.100;5.116;2022-08-07T01:23:15;102528.75;;;17.61;59.17
51876;BME280;34054;52.100;5.116;2022-08-07T01:23:49;102526.00;;;17.61;59.06
51876;BME280;34054;52.100;5.116;2022-08-07T01:24:22;102524.91;;;17.62;59.12
51876;BME280;34054;52.100;5.116;2022-08-07T01:24:54;102511.38;;;17.50;59.18
51876;BME280;34054;52.100;5.116;2022-08-07T01:25:28;102525.72;;;17.63;59.12
51876;BME280;34054;52.100;5.116;2022-08-07T01:26:00;102522.72;;;17.64;59.10
51876;BME280;34054;52.100;5.116;2022-08-07T01:26:33;102525.72;;;17.63;59.01
51876;BME280;34054;52.100;5.116;2022-08-07T01:27:06;102512.72;;;17.48;58.90
51876;BME280;34054;52.100;5.116;2022-08-07T01:27:38;102521.88;;;17.58;59.28
51876;BME280;34054;52.100;5.116;2022-08-07T01:28:10;102531.19;;;17.57;59.42
51876;BME280;34054;52.100;5.116;2022-08-07T01:28:44;102526.78;;;17.56;59.50
51876;BME280;34054;52.100;5.116;2022-08-07T01:29:16;102522.38;;;17.55;59.43
51876;BME280;34054;52.100;5.116;2022-08-07T01:29:49;102524.31;;;17.55;59.47
51876;BME280;34054;52.100;5.116;2022-08-07T01:30:23;102527.63;;;17.57;59.49
51876;BME280;34054;52.100;5.116;2022-08-07T01:30:57;102529.81;;;17.55;59.38
51876;BME280;34054;52.100;5.116;2022-08-07T01:31:33;102524.81;;;17.52;59.56
51876;BME280;34054;52.100;5.116;2022-08-07T01:32:05;102519.59;;;17.50;59.37
51876;BME280;34054;52.100;5.116;2022-08-07T01:32:37;102527.06;;;17.55;59.52
51876;BME280;34054;52.100;5.116;2022-08-07T01:33:10;102524.56;;;17.53;59.42
51876;BME280;34054;52.100;5.116;2022-08-07T01:33:42;102522.34;;;17.50;59.61
51876;BME280;34054;52.100;5.116;2022-08-07T01:34:13;102521.50;;;17.50;59.63
51876;BME280;34054;52.100;5.116;2022-08-07T01:34:48;102521.50;;;17.50;59.72
51876;BME280;34054;52.100;5.116;2022-08-07T01:35:20;102520.13;;;17.47;59.90
51876;BME280;34054;52.100;5.116;2022-08-07T01:35:52;102517.69;;;17.51;59.80
51876;BME280;34054;52.100;5.116;2022-08-07T01:36:28;102514.34;;;17.49;59.72
51876;BME280;34054;52.100;5.116;2022-08-07T01:37:00;102520.69;;;17.49;59.67
51876;BME280;34054;52.100;5.116;2022-08-07T01:37:32;102518.53;;;17.51;59.61
51876;BME280;34054;52.100;5.116;2022-08-07T01:38:05;102516.28;;;17.48;59.77
51876;BME280;34054;52.100;5.116;2022-08-07T01:38:38;102514.34;;;17.49;59.79
51876;BME280;34054;52.100;5.116;2022-08-07T01:39:10;102519.59;;;17.50;59.61
51876;BME280;34054;52.100;5.116;2022-08-07T01:39:44;102517.09;;;17.49;59.77
51876;BME280;34054;52.100;5.116;2022-08-07T01:40:18;102517.94;;;17.49;59.74
51876;BME280;34054;52.100;5.116;2022-08-07T01:40:53;102512.72;;;17.48;59.74
51876;BME280;34054;52.100;5.116;2022-08-07T01:41:26;102514.69;;;17.52;59.61
51876;BME280;34054;52.100;5.116;2022-08-07T01:41:58;102515.81;;;17.56;59.53
51876;BME280;34054;52.100;5.116;2022-08-07T01:42:31;102510.56;;;17.55;59.60
51876;BME280;34054;52.100;5.116;2022-08-07T01:43:04;102516.06;;;17.55;59.60
51876;BME280;34054;52.100;5.116;2022-08-07T01:43:36;102499.53;;;17.50;59.71
51876;BME280;34054;52.100;5.116;2022-08-07T01:44:09;102516.88;;;17.55;59.66
51876;BME280;34054;52.100;5.116;2022-08-07T01:44:41;102510.56;;;17.55;59.62
51876;BME280;34054;52.100;5.116;2022-08-07T01:45:14;102512.19;;;17.51;59.69
51876;BME280;34054;52.100;5.116;2022-08-07T01:45:47;102507.53;;;17.51;59.56
51876;BME280;34054;52.100;5.116;2022-08-07T01:46:20;102516.06;;;17.55;59.72
51876;BME280;34054;52.100;5.116;2022-08-07T01:46:52;102508.94;;;17.59;59.44
51876;BME280;34054;52.100;5.116;2022-08-07T01:47:25;102502.94;;;17.62;59.45
51876;BME280;34054;52.100;5.116;2022-08-07T01:47:56;102513.91;;;17.62;59.29
51876;BME280;34054;52.100;5.116;2022-08-07T01:48:29;102502.59;;;17.53;59.49
51876;BME280;34054;52.100;5.116;2022-08-07T01:49:02;102514.13;;;17.55;59.64
51876;BME280;34054;52.100;5.116;2022-08-07T01:49:34;102503.38;;;17.49;59.72
51876;BME280;34054;52.100;5.116;2022-08-07T01:50:07;102514.41;;;17.54;59.60
51876;BME280;34054;52.100;5.116;2022-08-07T01:50:41;102507.56;;;17.56;59.70
51876;BME280;34054;52.100;5.116;2022-08-07T01:51:20;102514.72;;;17.57;59.58
51876;BME280;34054;52.100;5.116;2022-08-07T01:51:55;102519.41;;;17.57;59.75
51876;BME280;34054;52.100;5.116;2022-08-07T01:52:31;102509.50;;;17.61;59.53
51876;BME280;34054;52.100;5.116;2022-08-07T01:53:05;102515.28;;;17.60;59.68
51876;BME280;34054;52.100;5.116;2022-08-07T01:53:41;102510.09;;;17.63;59.42
51876;BME280;34054;52.100;5.116;2022-08-07T01:54:19;102504.28;;;17.60;59.64
51876;BME280;34054;52.100;5.116;2022-08-07T01:54:55;102510.09;;;17.63;59.56
51876;BME280;34054;52.100;5.116;2022-08-07T01:55:35;102484.72;;;17.51;59.49
51876;BME280;34054;52.100;5.116;2022-08-07T01:56:13;102505.66;;;17.57;59.48
51876;BME280;34054;52.100;5.116;2022-08-07T01:56:50;102510.31;;;17.62;59.53
51876;BME280;34054;52.100;5.116;2022-08-07T01:57:27;102511.44;;;17.61;59.67
51876;BME280;34054;52.100;5.116;2022-08-07T01:58:06;102502.84;;;17.52;59.88
51876;BME280;34054;52.100;5.116;2022-08-07T01:58:43;102511.09;;;17.52;59.90
51876;BME280;34054;52.100;5.116;2022-08-07T01:59:23;102497.84;;;17.43;60.01
51876;BME280;34054;52.100;5.116;2022-08-07T02:00:01;102490.66;;;17.37;59.83
51876;BME280;34054;52.100;5.116;2022-08-07T02:00:36;102499.47;;;17.39;60.08
51876;BME280;34054;52.100;5.116;2022-08-07T02:01:15;102507.75;;;17.45;60.08
51876;BME280;34054;52.100;5.116;2022-08-07T02:01:58;102492.03;;;17.35;60.33
51876;BME280;34054;52.100;5.116;2022-08-07T02:02:37;102501.09;;;17.40;60.12
51876;BME280;34054;52.100;5.116;2022-08-07T02:03:14;102506.09;;;17.43;60.49
51876;BME280;34054;52.100;5.116;2022-08-07T02:03:52;102510.50;;;17.45;60.39
51876;BME280;34054;52.100;5.116;2022-08-07T02:04:38;102508.25;;;17.41;60.55
51876;BME280;34054;52.100;5.116;2022-08-07T02:05:17;102509.91;;;17.42;60.40
51876;BME280;34054;52.100;5.116;2022-08-07T02:05:58;102505.78;;;17.40;60.43
51876;BME280;34054;52.100;5.116;2022-08-07T02:06:34;102496.09;;;17.32;60.56
51876;BME280;34054;52.100;5.116;2022-08-07T02:07:12;102491.19;;;17.34;60.63
51876;BME280;34054;52.100;5.116;2022-08-07T02:07:49;102504.97;;;17.39;60.61
51876;BME280;34054;52.100;5.116;2022-08-07T02:08:25;102503.31;;;17.38;60.51
51876;BME280;34054;52.100;5.116;2022-08-07T02:09:02;102505.78;;;17.40;60.60
51876;BME280;34054;52.100;5.116;2022-08-07T02:09:35;102504.66;;;17.36;60.52
51876;BME280;34054;52.100;5.116;2022-08-07T02:10:10;102504.97;;;17.39;60.48
51876;BME280;34054;52.100;5.116;2022-08-07T02:10:47;102501.66;;;17.37;60.77
51876;BME280;34054;52.100;5.116;2022-08-07T02:11:23;102508.75;;;17.33;60.78
51876;BME280;34054;52.100;5.116;2022-08-07T02:11:56;102511.25;;;17.35;60.65
51876;BME280;34054;52.100;5.116;2022-08-07T02:12:47;102489.50;;;17.28;60.89
51876;BME280;34054;52.100;5.116;2022-08-07T02:13:24;102506.28;;;17.32;60.92
51876;BME280;34054;52.100;5.116;2022-08-07T02:13:59;102495.81;;;17.29;60.90
51876;BME280;34054;52.100;5.116;2022-08-07T02:14:34;102506.53;;;17.30;60.92
51876;BME280;34054;52.100;5.116;2022-08-07T02:15:09;102495.81;;;17.29;61.12
51876;BME280;34054;52.100;5.116;2022-08-07T02:15:42;102495.78;;;17.23;60.83
51876;BME280;34054;52.100;5.116;2022-08-07T02:16:16;102488.91;;;17.21;61.00
51876;BME280;34054;52.100;5.116;2022-08-07T02:16:52;102505.97;;;17.28;60.91
51876;BME280;34054;52.100;5.116;2022-08-07T02:17:26;102499.91;;;17.26;61.22
51876;BME280;34054;52.100;5.116;2022-08-07T02:17:58;102503.75;;;17.25;61.11
51876;BME280;34054;52.100;5.116;2022-08-07T02:18:35;102487.97;;;17.10;61.13
51876;BME280;34054;52.100;5.116;2022-08-07T02:19:10;102506.25;;;17.26;61.07
51876;BME280;34054;52.100;5.116;2022-08-07T02:19:45;102504.03;;;17.29;61.05
51876;BME280;34054;52.100;5.116;2022-08-07T02:20:20;102499.91;;;17.26;61.22
51876;BME280;34054;52.100;5.116;2022-08-07T02:20:55;102502.38;;;17.27;61.18
51876;BME280;34054;52.100;5.116;2022-08-07T02:21:29;102494.72;;;17.30;61.16
51876;BME280;34054;52.100;5.116;2022-08-07T02:22:04;102497.47;;;17.30;61.14
51876;BME280;34054;52.100;5.116;2022-08-07T02:22:39;102493.84;;;17.24;61.12
51876;BME280;34054;52.100;5.116;2022-08-07T02:23:13;102490.59;;;17.27;61.28
51876;BME280;34054;52.100;5.116;2022-08-07T02:23:47;102497.22;;;17.31;61.09
51876;BME280;34054;52.100;5.116;2022-08-07T02:24:21;102499.69;;;17.33;61.07
51876;BME280;34054;52.100;5.116;2022-08-07T02:24:56;102495.56;;;17.30;61.31
51876;BME280;34054;52.100;5.116;2022-08-07T02:25:30;102496.38;;;17.31;61.03
51876;BME280;34054;52.100;5.116;2022-08-07T02:26:07;102498.03;;;17.32;61.24
51876;BME280;34054;52.100;5.116;2022-08-07T02:26:41;102494.19;;;17.33;61.08
51876;BME280;34054;52.100;5.116;2022-08-07T02:27:16;102494.72;;;17.30;61.26
51876;BME280;34054;52.100;5.116;2022-08-07T02:27:50;102492.53;;;17.32;61.13
51876;BME280;34054;52.100;5.116;2022-08-07T02:28:26;102498.31;;;17.30;61.34
51876;BME280;34054;52.100;5.116;2022-08-07T02:29:02;102488.72;;;17.33;61.11
51876;BME280;34054;52.100;5.116;2022-08-07T02:29:37;102491.19;;;17.34;61.17
51876;BME280;34054;52.100;5.116;2022-08-07T02:30:12;102484.56;;;17.30;61.42
51876;BME280;34054;52.100;5.116;2022-08-07T02:30:44;102492.81;;;17.30;61.27
51876;BME280;34054;52.100;5.116;2022-08-07T02:31:18;102475.97;;;17.21;61.35
51876;BME280;34054;52.100;5.116;2022-08-07T02:31:53;102487.22;;;17.20;61.64
51876;BME280;34054;52.100;5.116;2022-08-07T02:32:25;102493.06;;;17.29;61.43
51876;BME280;34054;52.100;5.116;2022-08-07T02:32:59;102490.88;;;17.31;61.47
51876;BME280;34054;52.100;5.116;2022-08-07T02:33:35;102491.72;;;17.31;61.43
51876;BME280;34054;52.100;5.116;2022-08-07T02:34:09;102457.47;;;17.06;61.55
51876;BME280;34054;52.100;5.116;2022-08-07T02:34:43;102489.22;;;17.30;61.52
51876;BME280;34054;52.100;5.116;2022-08-07T02:35:18;102492.53;;;17.32;61.47
51876;BME280;34054;52.100;5.116;2022-08-07T02:35:51;102487.31;;;17.30;61.50
51876;BME280;34054;52.100;5.116;2022-08-07T02:36:25;102492.81;;;17.30;61.47
51876;BME280;34054;52.100;5.116;2022-08-07T02:36:58;102495.81;;;17.29;61.70
51876;BME280;34054;52.100;5.116;2022-08-07T02:37:33;102493.91;;;17.29;61.76
51876;BME280;34054;52.100;5.116;2022-08-07T02:38:07;102491.97;;;17.30;61.73
51876;BME280;34054;52.100;5.116;2022-08-07T02:38:42;102491.72;;;17.31;61.68
51876;BME280;34054;52.100;5.116;2022-08-07T02:39:17;102492.25;;;17.28;61.61
51876;BME280;34054;52.100;5.116;2022-08-07T02:39:51;102489.19;;;17.24;61.89
51876;BME280;34054;52.100;5.116;2022-08-07T02:40:25;102488.34;;;17.24;61.87
51876;BME280;34054;52.100;5.116;2022-08-07T02:40:59;102482.84;;;17.24;61.81
51876;BME280;34054;52.100;5.116;2022-08-07T02:41:33;102485.91;;;17.27;61.77
51876;BME280;34054;52.100;5.116;2022-08-07T02:42:05;102496.69;;;17.34;61.41
51876;BME280;34054;52.100;5.116;2022-08-07T02:42:39;102489.78;;;17.32;61.60
51876;BME280;34054;52.100;5.116;2022-08-07T02:43:11;102491.16;;;17.29;61.71
51876;BME280;34054;52.100;5.116;2022-08-07T02:43:45;102484.28;;;17.26;61.80
51876;BME280;34054;52.100;5.116;2022-08-07T02:44:22;102491.41;;;17.27;61.79
51876;BME280;34054;52.100;5.116;2022-08-07T02:44:55;102486.78;;;17.33;61.42
51876;BME280;34054;52.100;5.116;2022-08-07T02:45:32;102482.44;;;17.37;61.32
51876;BME280;34054;52.100;5.116;2022-08-07T02:46:07;102487.09;;;17.37;61.39
51876;BME280;34054;52.100;5.116;2022-08-07T02:46:42;102496.09;;;17.32;61.53
51876;BME280;34054;52.100;5.116;2022-08-07T02:47:16;102487.31;;;17.30;61.59
51876;BME280;34054;52.100;5.116;2022-08-07T02:47:48;102481.25;;;17.28;61.69
51876;BME280;34054;52.100;5.116;2022-08-07T02:48:20;102485.91;;;17.27;61.76
51876;BME280;34054;52.100;5.116;2022-08-07T02:48:52;102470.19;;;17.18;61.62
51876;BME280;34054;52.100;5.116;2022-08-07T02:49:24;102478.22;;;17.24;61.57
51876;BME280;34054;52.100;5.116;2022-08-07T02:49:57;102484.00;;;17.28;61.67
51876;BME280;34054;52.100;5.116;2022-08-07T02:50:30;102489.22;;;17.30;61.59
51876;BME280;34054;52.100;5.116;2022-08-07T02:51:08;102470.97;;;17.13;61.87
51876;BME280;34054;52.100;5.116;2022-08-07T02:51:45;102486.19;;;17.26;61.60
51876;BME280;34054;52.100;5.116;2022-08-07T02:52:22;102486.72;;;17.23;61.78
51876;BME280;34054;52.100;5.116;2022-08-07T02:53:02;102491.63;;;17.21;61.85
51876;BME280;34054;52.100;5.116;2022-08-07T02:53:41;102492.22;;;17.23;61.87
51876;BME280;34054;52.100;5.116;2022-08-07T02:54:16;102494.13;;;17.22;61.94
51876;BME280;34054;52.100;5.116;2022-08-07T02:54:51;102489.13;;;17.19;62.00
51876;BME280;34054;52.100;5.116;2022-08-07T02:55:26;102493.25;;;17.17;62.07
51876;BME280;34054;52.100;5.116;2022-08-07T02:56:02;102496.53;;;17.14;62.04
51876;BME280;34054;52.100;5.116;2022-08-07T02:56:38;102456.53;;;16.95;62.18